Main page
METAR-TAF:

METAR-TAF

Airports :

Brenham Municipal Airport

Brenham, Texas, United States

latitude: 30-13-08N, longitude: 096-22-27W, elevation: 308 ft

Current weather observation

The report was made 15 minutes ago, at 13:35 UTC
Wind 10 mph from the South/Southeast
Temperature 81°F
Humidity 89%
Pressure 29.88 in. Hg
Visibility: 7 miles
Overcast at a height of 1200 ft

METAR: K11R 201335Z AUTO 16009KT 7SM OVC012 27/25 A2988 RMK AO2 T02650251

Time: 08:50 (13:50 UTC)


TAF: missing

Weather observations and forecasts of more than 4000 airports (METAR and TAF reports).

The available stations are represented by yellow and red dots on the map.

Hover mouse over dot to see the name of the station.

Then click to see weather observations and forecasts.

To change the map : click on the green buttons with a black cross to zoom in, on the green button with a dash to zoom out, or on the green arrows for adjacent maps.


METAR-TAF: